Time;durP1;ratioP1;P1;durP2;ratioP2;P2;SDS_P1;SDS_P2;PMS_P1;PMS_P2;Temp;Humidity;BMP_temperature;BMP_pressure;BME280_temperature;BME280_humidity;BME280_pressure;Samples;Min_cycle;Max_cycle;Signal;HPM_P1;HPM_P2
2022/05/12 00:00:22;;;;;;;0.55;0.30;;;;;;;;;;4180060;28;20535;-37
2022/05/12 00:02:23;;;;;;;0.30;0.30;;;;;;;;;;4180537;28;20098;-37
2022/05/12 00:04:25;;;;;;;0.40;0.10;;;;;;;;;;4180355;28;20045;-35
2022/05/12 00:06:26;;;;;;;0.17;0.08;;;;;;;;;;4180438;28;20528;-33
2022/05/12 00:08:27;;;;;;;0.25;0.10;;;;;;;;;;4180229;28;20118;-38
2022/05/12 00:10:29;;;;;;;0.80;0.20;;;;;;;;;;4180338;28;20061;-37
2022/05/12 00:12:29;;;;;;;0.60;0.20;;;;;;;;;;4180486;28;20139;-40
2022/05/12 00:14:31;;;;;;;0.35;0.13;;;;;;;;;;4179987;28;20044;-37
2022/05/12 00:16:31;;;;;;;0.17;0.10;;;;;;;;;;4180344;28;20096;-36
2022/05/12 00:18:33;;;;;;;0.30;0.10;;;;;;;;;;4180112;28;20052;-39
2022/05/12 00:20:36;;;;;;;0.30;0.10;;;;;;;;;;4180365;28;20037;-38
2022/05/12 00:22:37;;;;;;;0.32;0.13;;;;;;;;;;4180017;28;20443;-39
2022/05/12 00:24:38;;;;;;;0.40;0.20;;;;;;;;;;4180073;28;20045;-39
2022/05/12 00:26:40;;;;;;;0.28;0.20;;;;;;;;;;4180083;28;20049;-38
2022/05/12 00:28:41;;;;;;;0.10;0.10;;;;;;;;;;4179647;28;20045;-37
2022/05/12 00:30:43;;;;;;;0.20;0.10;;;;;;;;;;4180278;28;20385;-40
2022/05/12 00:32:45;;;;;;;0.65;0.10;;;;;;;;;;4180172;28;20091;-38
2022/05/12 00:34:46;;;;;;;0.35;0.10;;;;;;;;;;4180065;28;20095;-40
2022/05/12 00:36:47;;;;;;;0.20;0.10;;;;;;;;;;4180141;28;20499;-38
2022/05/12 00:38:48;;;;;;;0.08;0.08;;;;;;;;;;4180073;28;20103;-40
2022/05/12 00:40:49;;;;;;;0.28;0.13;;;;;;;;;;4179935;28;20102;-35
2022/05/12 00:42:54;;;;;;;0.20;0.15;;;;;;;;;;4180219;28;20087;-39
2022/05/12 00:44:54;;;;;;;0.28;0.17;;;;;;;;;;4179232;28;20087;-36
2022/05/12 00:46:56;;;;;;;0.55;0.17;;;;;;;;;;4179908;28;20102;-40
2022/05/12 00:48:59;;;;;;;0.73;0.40;;;;;;;;;;4179993;28;20052;-38
2022/05/12 00:51:00;;;;;;;0.20;0.10;;;;;;;;;;4180024;28;20107;-38
2022/05/12 00:53:03;;;;;;;0.68;0.10;;;;;;;;;;4179978;28;20107;-39
2022/05/12 00:55:27;;;;;;;0.43;0.20;;;;;;;;;;4179833;28;20107;-39
2022/05/12 00:57:30;;;;;;;0.60;0.30;;;;;;;;;;4176631;28;20045;-39
2022/05/12 00:59:32;;;;;;;0.30;0.28;;;;;;;;;;4179028;28;20480;-37
2022/05/12 01:01:33;;;;;;;0.40;0.10;;;;;;;;;;4179652;28;20049;-34
2022/05/12 01:03:34;;;;;;;0.30;0.10;;;;;;;;;;4179503;28;20041;-38
2022/05/12 01:05:35;;;;;;;0.43;0.13;;;;;;;;;;4179613;28;20091;-40
2022/05/12 01:07:36;;;;;;;0.40;0.20;;;;;;;;;;4179443;28;20056;-39
2022/05/12 01:09:38;;;;;;;0.17;0.10;;;;;;;;;;4179682;28;20087;-37
2022/05/12 01:11:39;;;;;;;0.20;0.10;;;;;;;;;;4179915;28;20101;-38
2022/05/12 01:13:41;;;;;;;0.32;0.10;;;;;;;;;;4179218;28;20491;-36
2022/05/12 01:15:53;;;;;;;0.50;0.30;;;;;;;;;;4179709;28;20053;-35
2022/05/12 01:18:01;;;;;;;0.20;0.10;;;;;;;;;;4179859;28;20051;-40
2022/05/12 01:20:02;;;;;;;0.10;0.10;;;;;;;;;;4179319;28;20131;-39
2022/05/12 01:22:04;;;;;;;0.20;0.10;;;;;;;;;;4179519;28;20094;-38
2022/05/12 01:24:06;;;;;;;0.10;0.10;;;;;;;;;;4179363;28;20194;-40
2022/05/12 01:26:11;;;;;;;0.75;0.20;;;;;;;;;;4179455;28;20056;-39
2022/05/12 01:28:12;;;;;;;0.20;0.10;;;;;;;;;;4179418;28;20049;-39
2022/05/12 01:30:15;;;;;;;0.38;0.13;;;;;;;;;;4177591;28;20044;-37
2022/05/12 01:32:17;;;;;;;0.05;0.05;;;;;;;;;;4179407;28;20488;-36
2022/05/12 01:34:21;;;;;;;0.28;0.20;;;;;;;;;;4179400;28;20053;-40
2022/05/12 01:36:22;;;;;;;0.68;0.28;;;;;;;;;;4179353;28;20099;-40
2022/05/12 01:38:24;;;;;;;0.25;0.15;;;;;;;;;;4179361;28;20053;-38
2022/05/12 01:40:25;;;;;;;0.38;0.28;;;;;;;;;;4194533;28;20158;-38
2022/05/12 01:42:26;;;;;;;0.30;0.20;;;;;;;;;;4179583;28;20041;-38
2022/05/12 01:44:27;;;;;;;0.10;0.10;;;;;;;;;;4179126;28;20490;-39
2022/05/12 01:46:28;;;;;;;0.30;0.15;;;;;;;;;;4179953;28;20586;-40
2022/05/12 01:48:29;;;;;;;1.42;0.30;;;;;;;;;;4179170;28;20107;-39
2022/05/12 01:50:30;;;;;;;0.10;0.08;;;;;;;;;;4179097;28;20048;-38
2022/05/12 01:52:31;;;;;;;0.10;0.10;;;;;;;;;;4179211;28;20049;-38
2022/05/12 01:54:32;;;;;;;0.60;0.20;;;;;;;;;;4179129;28;20141;-37
2022/05/12 01:56:33;;;;;;;0.22;0.20;;;;;;;;;;4179208;28;20098;-36
2022/05/12 01:58:34;;;;;;;0.10;0.10;;;;;;;;;;4178778;28;20080;-40
2022/05/12 02:00:36;;;;;;;0.65;0.10;;;;;;;;;;4179057;28;20098;-40
2022/05/12 02:02:37;;;;;;;0.22;0.20;;;;;;;;;;4179402;28;20484;-38
2022/05/12 02:04:38;;;;;;;0.47;0.20;;;;;;;;;;4179175;28;20087;-39
2022/05/12 02:06:39;;;;;;;0.88;0.13;;;;;;;;;;4179462;28;20118;-36
2022/05/12 02:08:43;;;;;;;0.10;0.10;;;;;;;;;;4182155;28;20082;-40
2022/05/12 02:10:45;;;;;;;0.32;0.20;;;;;;;;;;4182352;28;20165;-38
2022/05/12 02:12:47;;;;;;;0.40;0.20;;;;;;;;;;4182237;28;20115;-39
2022/05/12 02:14:48;;;;;;;1.65;0.20;;;;;;;;;;4181547;28;20060;-39
2022/05/12 02:16:49;;;;;;;0.10;0.10;;;;;;;;;;4182159;28;20056;-39
2022/05/12 02:18:50;;;;;;;0.22;0.20;;;;;;;;;;4181879;28;20485;-40
2022/05/12 02:20:52;;;;;;;0.22;0.17;;;;;;;;;;4182405;28;20045;-40
2022/05/12 02:22:53;;;;;;;0.50;0.20;;;;;;;;;;4182005;28;20071;-40
2022/05/12 02:24:54;;;;;;;0.40;0.30;;;;;;;;;;4181879;28;20045;-38
2022/05/12 02:26:56;;;;;;;0.25;0.20;;;;;;;;;;4181816;28;20481;-40
2022/05/12 02:28:58;;;;;;;0.65;0.20;;;;;;;;;;4181545;28;20481;-41
2022/05/12 02:30:58;;;;;;;0.20;0.10;;;;;;;;;;4181947;28;20504;-40
2022/05/12 02:33:01;;;;;;;0.20;0.10;;;;;;;;;;4182159;28;20048;-40
2022/05/12 02:35:02;;;;;;;0.10;0.10;;;;;;;;;;4182002;28;20077;-40
2022/05/12 02:37:04;;;;;;;0.40;0.20;;;;;;;;;;4181864;28;20049;-36
2022/05/12 02:39:05;;;;;;;0.10;0.10;;;;;;;;;;4181821;28;20045;-39
2022/05/12 02:41:07;;;;;;;0.28;0.20;;;;;;;;;;4181895;28;20514;-36
2022/05/12 02:43:31;;;;;;;0.30;0.10;;;;;;;;;;4181942;28;20405;-39
2022/05/12 02:45:29;;;;;;;0.20;0.10;;;;;;;;;;4181116;28;20059;-38
2022/05/12 02:47:30;;;;;;;0.40;0.20;;;;;;;;;;4181843;28;20473;-37
2022/05/12 02:49:31;;;;;;;0.63;0.20;;;;;;;;;;4181624;28;20053;-41
2022/05/12 02:51:33;;;;;;;0.20;0.10;;;;;;;;;;4182043;28;20052;-39
2022/05/12 02:53:35;;;;;;;0.20;0.10;;;;;;;;;;4181486;28;20053;-38
2022/05/12 02:55:36;;;;;;;0.20;0.10;;;;;;;;;;4181466;28;20477;-38
2022/05/12 02:57:39;;;;;;;0.20;0.20;;;;;;;;;;4181525;28;20053;-39
2022/05/12 02:59:40;;;;;;;0.20;0.20;;;;;;;;;;4179613;28;20037;-38
2022/05/12 03:01:41;;;;;;;0.10;0.10;;;;;;;;;;4181318;28;20098;-38
2022/05/12 03:03:42;;;;;;;0.22;0.20;;;;;;;;;;4181280;28;20107;-40
2022/05/12 03:05:43;;;;;;;0.38;0.15;;;;;;;;;;4181501;28;20100;-40
2022/05/12 03:07:44;;;;;;;0.15;0.10;;;;;;;;;;4181463;28;20044;-41
2022/05/12 03:09:45;;;;;;;0.45;0.20;;;;;;;;;;4181393;28;20307;-36
2022/05/12 03:11:45;;;;;;;0.15;0.15;;;;;;;;;;4181320;28;20090;-40
2022/05/12 03:13:48;;;;;;;0.10;0.08;;;;;;;;;;4180889;28;20092;-39
2022/05/12 03:15:49;;;;;;;0.15;0.10;;;;;;;;;;4181042;28;20095;-38
2022/05/12 03:17:51;;;;;;;0.35;0.20;;;;;;;;;;4181180;28;20111;-40
2022/05/12 03:19:52;;;;;;;0.10;0.10;;;;;;;;;;4180396;28;20048;-37
2022/05/12 03:21:53;;;;;;;0.22;0.10;;;;;;;;;;4181143;28;20041;-40
2022/05/12 03:23:54;;;;;;;0.52;0.25;;;;;;;;;;4181046;28;20396;-39
2022/05/12 03:25:55;;;;;;;0.55;0.10;;;;;;;;;;4181202;28;20095;-40
2022/05/12 03:27:55;;;;;;;0.30;0.30;;;;;;;;;;4181397;28;20194;-41
2022/05/12 03:29:57;;;;;;;0.10;0.10;;;;;;;;;;4180413;28;20126;-40
2022/05/12 03:31:57;;;;;;;0.25;0.10;;;;;;;;;;4181391;28;20048;-39
2022/05/12 03:34:00;;;;;;;0.20;0.10;;;;;;;;;;4180984;28;20619;-39
2022/05/12 03:36:00;;;;;;;0.30;0.20;;;;;;;;;;4179662;28;20037;-39
2022/05/12 03:38:02;;;;;;;0.17;0.10;;;;;;;;;;4180950;28;20091;-40
2022/05/12 03:40:04;;;;;;;0.20;0.10;;;;;;;;;;4180715;28;20044;-39
2022/05/12 03:42:06;;;;;;;0.20;0.20;;;;;;;;;;4180970;28;20041;-40
2022/05/12 03:46:27;;;;;;;0.17;0.10;;;;;;;;;;4180831;28;20516;-37
2022/05/12 03:48:28;;;;;;;0.38;0.20;;;;;;;;;;4212696;28;20048;-40
2022/05/12 03:50:29;;;;;;;0.25;0.20;;;;;;;;;;4179568;28;20079;-40
2022/05/12 03:52:31;;;;;;;0.32;0.20;;;;;;;;;;4163121;28;20053;-39
2022/05/12 03:54:32;;;;;;;0.70;0.10;;;;;;;;;;4180436;28;20397;-39
2022/05/12 03:56:33;;;;;;;0.20;0.20;;;;;;;;;;4180574;28;20071;-39
2022/05/12 03:58:34;;;;;;;0.20;0.17;;;;;;;;;;4180412;28;20049;-39
2022/05/12 04:00:36;;;;;;;0.43;0.15;;;;;;;;;;4180203;28;20057;-39
2022/05/12 04:02:37;;;;;;;0.10;0.10;;;;;;;;;;4180833;28;20045;-38
2022/05/12 04:04:38;;;;;;;0.80;0.20;;;;;;;;;;4180243;28;20118;-40
2022/05/12 04:06:39;;;;;;;0.10;0.10;;;;;;;;;;4180452;28;20139;-40
2022/05/12 04:08:40;;;;;;;0.30;0.20;;;;;;;;;;4180296;28;20211;-37
2022/05/12 04:10:41;;;;;;;0.73;0.15;;;;;;;;;;4180524;28;20171;-39
2022/05/12 04:12:42;;;;;;;0.15;0.10;;;;;;;;;;4180364;28;20045;-39
2022/05/12 04:14:43;;;;;;;1.35;0.20;;;;;;;;;;4180048;28;20118;-39
2022/05/12 04:16:45;;;;;;;0.30;0.10;;;;;;;;;;4180336;28;20067;-39
2022/05/12 04:18:46;;;;;;;0.40;0.20;;;;;;;;;;4180074;28;20056;-40
2022/05/12 04:20:47;;;;;;;0.08;0.08;;;;;;;;;;4180555;28;20375;-36
2022/05/12 04:22:48;;;;;;;0.10;0.10;;;;;;;;;;4180334;28;20044;-37
2022/05/12 04:24:49;;;;;;;0.10;0.10;;;;;;;;;;4179992;28;20080;-40
2022/05/12 04:26:50;;;;;;;0.57;0.20;;;;;;;;;;4180043;28;20094;-39
2022/05/12 04:28:51;;;;;;;0.20;0.10;;;;;;;;;;4179416;28;20536;-41
2022/05/12 04:30:53;;;;;;;0.32;0.10;;;;;;;;;;4179222;28;20048;-41
2022/05/12 04:32:54;;;;;;;0.32;0.20;;;;;;;;;;4180041;28;20045;-39
2022/05/12 04:35:11;;;;;;;0.32;0.17;;;;;;;;;;4179916;28;20087;-38
2022/05/12 04:37:12;;;;;;;0.10;0.10;;;;;;;;;;4180202;28;20137;-37
2022/05/12 04:39:13;;;;;;;0.38;0.17;;;;;;;;;;4183320;28;20044;-39
2022/05/12 04:41:16;;;;;;;0.10;0.10;;;;;;;;;;4191781;28;20040;-40
2022/05/12 04:43:17;;;;;;;0.40;0.20;;;;;;;;;;4195820;28;20094;-38
2022/05/12 04:45:18;;;;;;;0.70;0.30;;;;;;;;;;4196152;28;20052;-39
2022/05/12 04:47:19;;;;;;;0.30;0.20;;;;;;;;;;4196371;28;20094;-39
2022/05/12 04:49:22;;;;;;;0.15;0.10;;;;;;;;;;4195887;28;20095;-40
2022/05/12 04:51:24;;;;;;;0.57;0.20;;;;;;;;;;4196540;28;20090;-38
2022/05/12 04:53:25;;;;;;;0.68;0.32;;;;;;;;;;4196523;28;20520;-39
2022/05/12 04:55:27;;;;;;;0.30;0.13;;;;;;;;;;4196200;28;20044;-38
2022/05/12 04:57:34;;;;;;;0.17;0.13;;;;;;;;;;4196162;28;20053;-39
2022/05/12 04:59:35;;;;;;;0.40;0.10;;;;;;;;;;4189221;28;20045;-39
2022/05/12 05:01:36;;;;;;;0.35;0.10;;;;;;;;;;4163526;28;20156;-40
2022/05/12 05:03:37;;;;;;;0.32;0.17;;;;;;;;;;4161014;28;20563;-40
2022/05/12 05:05:38;;;;;;;0.40;0.20;;;;;;;;;;4161182;28;20053;-36
2022/05/12 05:07:39;;;;;;;0.20;0.15;;;;;;;;;;4161334;28;20405;-38
2022/05/12 05:09:41;;;;;;;0.90;0.20;;;;;;;;;;4161193;28;20091;-38
2022/05/12 05:11:42;;;;;;;0.15;0.10;;;;;;;;;;4161227;28;20057;-39
2022/05/12 05:13:42;;;;;;;0.20;0.10;;;;;;;;;;4160234;28;20049;-37
2022/05/12 05:15:44;;;;;;;0.35;0.28;;;;;;;;;;4161290;28;20046;-39
2022/05/12 05:17:46;;;;;;;0.38;0.30;;;;;;;;;;4161170;28;20053;-40
2022/05/12 05:19:47;;;;;;;0.52;0.20;;;;;;;;;;4161016;28;20053;-40
2022/05/12 05:21:48;;;;;;;0.40;0.22;;;;;;;;;;4160718;28;20489;-37
2022/05/12 05:23:49;;;;;;;0.32;0.13;;;;;;;;;;4161025;28;20096;-41
2022/05/12 05:25:51;;;;;;;0.47;0.30;;;;;;;;;;4160492;28;20476;-38
2022/05/12 05:27:54;;;;;;;0.45;0.22;;;;;;;;;;4168318;28;20111;-37
2022/05/12 05:29:55;;;;;;;0.40;0.20;;;;;;;;;;4176358;28;20486;-37
2022/05/12 05:31:56;;;;;;;0.95;0.40;;;;;;;;;;4177455;28;20099;-38
2022/05/12 05:33:57;;;;;;;0.60;0.35;;;;;;;;;;4177195;28;20438;-40
2022/05/12 05:35:59;;;;;;;0.85;0.50;;;;;;;;;;4176834;28;20386;-33
2022/05/12 05:38:00;;;;;;;0.98;0.30;;;;;;;;;;4176983;28;20094;-40
2022/05/12 05:40:03;;;;;;;0.47;0.20;;;;;;;;;;4176990;28;20057;-39
2022/05/12 05:42:07;;;;;;;0.40;0.20;;;;;;;;;;4176015;28;20369;-39
2022/05/12 05:44:08;;;;;;;0.65;0.30;;;;;;;;;;4180085;28;20131;-40
2022/05/12 05:46:09;;;;;;;0.73;0.45;;;;;;;;;;4179623;28;20081;-37
2022/05/12 05:48:10;;;;;;;0.65;0.30;;;;;;;;;;4179617;28;20060;-40
2022/05/12 05:50:13;;;;;;;0.65;0.20;;;;;;;;;;4180379;28;20049;-38
2022/05/12 05:54:34;;;;;;;1.02;0.47;;;;;;;;;;4179966;28;20049;-38
2022/05/12 05:56:35;;;;;;;0.30;0.30;;;;;;;;;;4179854;28;20053;-40
2022/05/12 05:58:36;;;;;;;0.45;0.22;;;;;;;;;;4178716;28;20063;-40
2022/05/12 06:00:37;;;;;;;0.40;0.20;;;;;;;;;;4172663;28;20089;-39
2022/05/12 06:02:38;;;;;;;0.85;0.45;;;;;;;;;;4178997;28;20080;-40
2022/05/12 06:04:39;;;;;;;1.25;0.47;;;;;;;;;;4176559;28;20094;-40
2022/05/12 06:06:42;;;;;;;0.70;0.30;;;;;;;;;;4175079;28;20048;-37
2022/05/12 06:08:43;;;;;;;0.73;0.35;;;;;;;;;;4177912;28;20049;-37
2022/05/12 06:10:44;;;;;;;0.65;0.30;;;;;;;;;;4172077;28;20119;-38
2022/05/12 06:12:46;;;;;;;0.45;0.20;;;;;;;;;;4176756;28;20044;-38
2022/05/12 06:14:47;;;;;;;1.05;0.38;;;;;;;;;;4183961;28;20052;-41
2022/05/12 06:16:48;;;;;;;1.25;0.38;;;;;;;;;;4182537;28;20881;-40
2022/05/12 06:18:48;;;;;;;1.02;0.40;;;;;;;;;;4186248;28;20496;-40
2022/05/12 06:20:50;;;;;;;0.40;0.32;;;;;;;;;;4179200;28;20424;-40
2022/05/12 06:22:51;;;;;;;0.73;0.38;;;;;;;;;;4177823;28;20106;-39
2022/05/12 06:24:52;;;;;;;0.77;0.30;;;;;;;;;;4182073;28;20453;-39
2022/05/12 06:26:53;;;;;;;0.98;0.47;;;;;;;;;;4182719;28;20048;-40
2022/05/12 06:28:55;;;;;;;1.15;0.30;;;;;;;;;;4176736;28;20175;-39
2022/05/12 06:30:56;;;;;;;0.75;0.40;;;;;;;;;;4176455;28;20048;-41
2022/05/12 06:32:57;;;;;;;0.75;0.30;;;;;;;;;;4164872;28;20198;-41
2022/05/12 06:34:58;;;;;;;0.10;0.10;;;;;;;;;;4172697;28;20448;-41
2022/05/12 06:36:59;;;;;;;0.93;0.30;;;;;;;;;;4173024;28;20053;-40
2022/05/12 06:39:00;;;;;;;0.52;0.30;;;;;;;;;;4174944;28;20496;-39
2022/05/12 06:41:03;;;;;;;2.08;0.45;;;;;;;;;;4174523;28;20118;-40
2022/05/12 06:43:05;;;;;;;1.63;0.30;;;;;;;;;;4173276;28;20052;-41
2022/05/12 06:45:07;;;;;;;1.23;0.43;;;;;;;;;;4176601;28;20044;-39
2022/05/12 06:47:09;;;;;;;0.38;0.28;;;;;;;;;;4176788;28;20531;-39
2022/05/12 06:49:10;;;;;;;0.77;0.40;;;;;;;;;;4176838;28;20049;-40
2022/05/12 06:51:11;;;;;;;2.53;0.43;;;;;;;;;;4172688;28;20570;-40
2022/05/12 06:53:13;;;;;;;1.13;0.30;;;;;;;;;;4168622;28;20146;-38
2022/05/12 06:55:14;;;;;;;1.33;0.30;;;;;;;;;;4161619;28;20057;-40
2022/05/12 06:57:21;;;;;;;0.35;0.25;;;;;;;;;;4169765;28;20091;-39
2022/05/12 06:59:22;;;;;;;0.63;0.40;;;;;;;;;;4170050;28;20044;-38
2022/05/12 07:01:23;;;;;;;1.65;0.30;;;;;;;;;;4165195;28;20827;-39
2022/05/12 07:03:24;;;;;;;1.38;0.40;;;;;;;;;;4169243;28;20098;-41
2022/05/12 07:05:25;;;;;;;0.55;0.30;;;;;;;;;;4176481;28;20079;-39
2022/05/12 07:07:28;;;;;;;1.77;0.30;;;;;;;;;;4173503;28;20121;-38
2022/05/12 07:09:31;;;;;;;2.05;0.40;;;;;;;;;;4173934;28;20166;-38
2022/05/12 07:11:32;;;;;;;2.03;0.40;;;;;;;;;;4175436;28;20495;-38
2022/05/12 07:13:33;;;;;;;1.13;0.30;;;;;;;;;;4166930;28;20190;-40
2022/05/12 07:15:35;;;;;;;0.50;0.30;;;;;;;;;;4167140;28;20051;-38
2022/05/12 07:17:42;;;;;;;0.45;0.30;;;;;;;;;;4167037;28;20103;-40
2022/05/12 07:19:43;;;;;;;0.60;0.30;;;;;;;;;;4168603;28;20052;-42
2022/05/12 07:26:35;;;;;;;2.28;0.22;;;;;;;;;;4171904;28;20416;-39
2022/05/12 07:28:37;;;;;;;1.52;0.30;;;;;;;;;;4170342;28;20053;-39
2022/05/12 07:32:57;;;;;;;0.35;0.28;;;;;;;;;;4164650;28;20044;-41
2022/05/12 07:34:59;;;;;;;1.13;0.32;;;;;;;;;;4168538;28;20094;-39
2022/05/12 07:37:00;;;;;;;1.63;0.30;;;;;;;;;;4166381;28;20045;-38
2022/05/12 07:39:01;;;;;;;1.75;0.20;;;;;;;;;;4168849;28;20057;-41
2022/05/12 07:41:04;;;;;;;1.52;0.40;;;;;;;;;;4165736;28;20041;-41
2022/05/12 07:43:05;;;;;;;0.38;0.30;;;;;;;;;;4171272;28;20099;-41
2022/05/12 07:45:07;;;;;;;0.70;0.30;;;;;;;;;;4165549;28;20762;-40
2022/05/12 07:47:10;;;;;;;1.58;0.30;;;;;;;;;;4163516;28;20048;-40
2022/05/12 07:49:12;;;;;;;0.98;0.30;;;;;;;;;;4164100;28;20045;-39
2022/05/12 07:51:14;;;;;;;0.98;0.30;;;;;;;;;;4165350;28;20385;-40
2022/05/12 07:53:15;;;;;;;2.67;0.30;;;;;;;;;;4163546;28;20100;-40
2022/05/12 07:55:16;;;;;;;1.40;0.28;;;;;;;;;;4167774;28;20049;-40
2022/05/12 07:57:17;;;;;;;0.77;0.20;;;;;;;;;;4159193;28;20060;-40
2022/05/12 07:59:19;;;;;;;1.27;0.40;;;;;;;;;;4158145;28;20049;-40
2022/05/12 08:01:21;;;;;;;2.90;0.30;;;;;;;;;;4159267;28;20432;-40
2022/05/12 08:03:22;;;;;;;1.60;0.38;;;;;;;;;;4167140;28;20045;-38
2022/05/12 08:05:24;;;;;;;1.05;0.30;;;;;;;;;;4167108;28;20372;-41
2022/05/12 08:07:26;;;;;;;1.27;0.40;;;;;;;;;;4168796;28;20056;-39
2022/05/12 08:09:28;;;;;;;2.60;0.40;;;;;;;;;;4164687;28;20076;-41
2022/05/12 08:11:29;;;;;;;1.05;0.30;;;;;;;;;;4158824;28;20515;-40
2022/05/12 08:13:31;;;;;;;2.03;0.45;;;;;;;;;;4161307;28;20048;-41
2022/05/12 08:15:32;;;;;;;4.35;0.47;;;;;;;;;;4158409;28;20634;-39
2022/05/12 08:17:34;;;;;;;1.55;0.47;;;;;;;;;;4156760;28;20493;-42
2022/05/12 08:19:35;;;;;;;0.82;0.40;;;;;;;;;;4165948;28;20452;-40
2022/05/12 08:21:36;;;;;;;0.70;0.20;;;;;;;;;;4165164;28;20168;-42
2022/05/12 08:23:37;;;;;;;0.73;0.30;;;;;;;;;;4160244;28;20048;-42
2022/05/12 08:25:39;;;;;;;1.13;0.43;;;;;;;;;;4159328;28;20842;-42
2022/05/12 08:27:40;;;;;;;1.95;0.47;;;;;;;;;;4159658;28;20052;-41
2022/05/12 08:29:41;;;;;;;1.05;0.30;;;;;;;;;;4164717;28;20056;-42
2022/05/12 08:31:42;;;;;;;1.42;0.45;;;;;;;;;;4158248;28;20049;-42
2022/05/12 08:33:43;;;;;;;1.95;0.30;;;;;;;;;;4157489;28;20142;-41
2022/05/12 08:35:44;;;;;;;1.70;0.40;;;;;;;;;;4161730;28;20052;-41
2022/05/12 08:37:45;;;;;;;0.57;0.40;;;;;;;;;;4162886;28;20106;-42
2022/05/12 08:39:46;;;;;;;1.83;0.32;;;;;;;;;;4157369;28;20140;-42
2022/05/12 08:42:12;;;;;;;0.70;0.20;;;;;;;;;;4166933;28;20055;-41
2022/05/12 08:44:16;;;;;;;0.35;0.20;;;;;;;;;;4163027;28;20041;-42
2022/05/12 08:46:19;;;;;;;0.20;0.17;;;;;;;;;;4161541;28;20802;-42
2022/05/12 08:48:20;;;;;;;0.65;0.32;;;;;;;;;;4168454;28;20794;-43
2022/05/12 08:50:24;;;;;;;1.10;0.50;;;;;;;;;;4167550;28;20125;-42
2022/05/12 08:52:25;;;;;;;1.92;0.40;;;;;;;;;;4163569;28;20041;-43
2022/05/12 08:54:26;;;;;;;0.60;0.20;;;;;;;;;;4161123;28;20052;-41
2022/05/12 08:56:27;;;;;;;1.13;0.40;;;;;;;;;;4163234;28;20594;-42
2022/05/12 08:58:33;;;;;;;0.52;0.20;;;;;;;;;;4167909;28;20083;-42
2022/05/12 09:00:37;;;;;;;1.05;0.52;;;;;;;;;;4161059;28;20049;-42
2022/05/12 09:02:49;;;;;;;2.13;0.30;;;;;;;;;;4153148;28;20586;-42
2022/05/12 09:04:59;;;;;;;1.67;0.40;;;;;;;;;;4165469;28;20106;-40
2022/05/12 09:07:16;;;;;;;1.85;0.60;;;;;;;;;;4163386;28;20543;-44
2022/05/12 09:09:27;;;;;;;3.22;0.30;;;;;;;;;;4143733;28;20059;-44
2022/05/12 09:11:36;;;;;;;2.17;0.20;;;;;;;;;;4162696;28;20053;-44
2022/05/12 09:13:44;;;;;;;1.00;0.38;;;;;;;;;;4160256;28;20740;-43
2022/05/12 09:15:49;;;;;;;0.63;0.20;;;;;;;;;;4165918;28;20507;-42
2022/05/12 09:17:54;;;;;;;1.95;0.25;;;;;;;;;;4165796;28;20083;-43
2022/05/12 09:19:58;;;;;;;3.05;0.50;;;;;;;;;;4169827;28;20741;-42
2022/05/12 09:21:59;;;;;;;1.92;0.25;;;;;;;;;;4172710;28;20106;-44
2022/05/12 09:24:00;;;;;;;1.30;0.35;;;;;;;;;;4169259;28;20057;-43
2022/05/12 09:26:21;;;;;;;1.20;0.38;;;;;;;;;;4163526;28;20130;-44
2022/05/12 09:28:26;;;;;;;1.23;0.30;;;;;;;;;;4165880;28;20048;-43
2022/05/12 09:30:32;;;;;;;2.10;0.30;;;;;;;;;;4164475;28;20101;-44
2022/05/12 09:32:34;;;;;;;1.15;0.65;;;;;;;;;;4166267;28;20057;-42
2022/05/12 09:34:37;;;;;;;1.23;0.50;;;;;;;;;;4162727;28;20124;-42
2022/05/12 09:36:39;;;;;;;1.10;0.30;;;;;;;;;;4164597;28;20488;-43
2022/05/12 09:38:41;;;;;;;1.60;0.60;;;;;;;;;;4169563;28;20049;-43
2022/05/12 09:40:42;;;;;;;2.03;0.60;;;;;;;;;;4168114;28;20527;-43
2022/05/12 09:42:44;;;;;;;1.55;0.70;;;;;;;;;;4171931;28;20049;-44
2022/05/12 09:45:12;;;;;;;1.83;0.70;;;;;;;;;;4167076;28;20657;-44
2022/05/12 09:47:16;;;;;;;0.60;0.50;;;;;;;;;;4164116;28;20089;-42
2022/05/12 09:49:19;;;;;;;1.90;0.98;;;;;;;;;;4171873;28;20126;-43
2022/05/12 09:51:21;;;;;;;1.83;0.80;;;;;;;;;;4168788;28;20041;-43
2022/05/12 09:53:28;;;;;;;2.70;1.10;;;;;;;;;;4164815;28;20045;-43
2022/05/12 09:55:31;;;;;;;2.35;0.95;;;;;;;;;;4165645;28;20087;-43
2022/05/12 09:57:32;;;;;;;1.23;0.73;;;;;;;;;;4168096;28;20041;-43
2022/05/12 09:59:33;;;;;;;2.20;0.80;;;;;;;;;;4160405;28;23016;-43
2022/05/12 10:01:35;;;;;;;2.60;1.00;;;;;;;;;;4166202;28;20126;-43
2022/05/12 10:08:22;;;;;;;1.08;0.70;;;;;;;;;;4173187;28;20503;-42
2022/05/12 10:10:25;;;;;;;1.35;0.82;;;;;;;;;;4181903;28;20113;-42
2022/05/12 10:12:30;;;;;;;1.15;0.80;;;;;;;;;;4173567;28;20378;-43
2022/05/12 10:14:51;;;;;;;1.60;0.90;;;;;;;;;;4176447;28;20075;-43
2022/05/12 10:16:55;;;;;;;1.20;0.85;;;;;;;;;;4172824;28;20110;-43
2022/05/12 10:18:57;;;;;;;1.13;0.70;;;;;;;;;;4204830;28;20036;-43
2022/05/12 10:21:06;;;;;;;2.35;0.88;;;;;;;;;;4181288;28;20048;-42
2022/05/12 10:23:10;;;;;;;1.48;0.82;;;;;;;;;;4185271;28;20098;-42
2022/05/12 10:25:34;;;;;;;1.55;0.88;;;;;;;;;;4172742;28;20645;-42
2022/05/12 10:28:02;;;;;;;1.58;0.82;;;;;;;;;;4164774;28;22216;-43
2022/05/12 10:30:18;;;;;;;1.60;0.98;;;;;;;;;;4175928;28;20060;-43
2022/05/12 10:32:25;;;;;;;1.40;0.70;;;;;;;;;;4178186;28;20098;-42
2022/05/12 10:34:49;;;;;;;1.15;0.68;;;;;;;;;;4191181;28;20101;-43
2022/05/12 10:36:57;;;;;;;1.88;1.00;;;;;;;;;;4176093;28;20045;-42
2022/05/12 10:39:01;;;;;;;3.63;0.60;;;;;;;;;;4178086;28;20053;-42
2022/05/12 10:41:14;;;;;;;0.82;0.52;;;;;;;;;;4170916;28;20045;-43
2022/05/12 10:43:34;;;;;;;1.65;0.65;;;;;;;;;;4168054;28;20106;-43
2022/05/12 10:45:37;;;;;;;;;;;;;;;;;;4171513;28;20429;-43
2022/05/12 10:47:44;;;;;;;0.30;0.30;;;;;;;;;;4161557;28;20747;-43
2022/05/12 10:49:54;;;;;;;2.17;0.60;;;;;;;;;;4173356;28;20102;-43
2022/05/12 10:52:02;;;;;;;1.38;0.60;;;;;;;;;;4171600;28;20658;-43
2022/05/12 10:54:10;;;;;;;0.98;0.50;;;;;;;;;;4168181;28;20075;-42
2022/05/12 10:56:18;;;;;;;1.52;0.40;;;;;;;;;;4175171;28;20044;-43
2022/05/12 10:58:26;;;;;;;0.75;0.38;;;;;;;;;;4164762;28;21460;-43
2022/05/12 11:00:32;;;;;;;1.80;0.50;;;;;;;;;;4198313;28;20559;-43
2022/05/12 11:02:42;;;;;;;3.42;0.40;;;;;;;;;;4175245;28;20497;-44
2022/05/12 11:04:48;;;;;;;2.20;0.43;;;;;;;;;;4170255;28;20045;-41
2022/05/12 11:07:00;;;;;;;0.95;0.47;;;;;;;;;;4171413;28;20048;-41
2022/05/12 11:09:10;;;;;;;1.48;0.40;;;;;;;;;;4171343;28;20101;-42
2022/05/12 11:11:23;;;;;;;0.93;0.50;;;;;;;;;;4172557;28;20419;-42
2022/05/12 11:13:24;;;;;;;1.20;0.30;;;;;;;;;;4166667;28;20063;-42
2022/05/12 11:15:38;;;;;;;0.57;0.32;;;;;;;;;;4168348;28;20424;-40
2022/05/12 11:17:49;;;;;;;1.83;0.38;;;;;;;;;;4174791;28;20102;-40
2022/05/12 11:20:00;;;;;;;1.85;0.50;;;;;;;;;;4173065;28;20052;-42
2022/05/12 11:22:27;;;;;;;0.90;0.40;;;;;;;;;;4166415;28;20045;-41
2022/05/12 11:24:40;;;;;;;1.55;0.30;;;;;;;;;;4183081;28;20273;-42
2022/05/12 11:26:47;;;;;;;0.88;0.40;;;;;;;;;;4166056;28;20123;-41
2022/05/12 11:31:42;;;;;;;0.63;0.22;;;;;;;;;;4165200;28;20110;-41
2022/05/12 11:33:46;;;;;;;1.27;0.40;;;;;;;;;;4136904;28;20111;-38
2022/05/12 11:35:51;;;;;;;2.42;0.40;;;;;;;;;;4177979;28;20106;-42
2022/05/12 11:37:55;;;;;;;4.75;0.70;;;;;;;;;;4173568;28;20044;-40
2022/05/12 11:39:57;;;;;;;2.30;0.40;;;;;;;;;;4173150;28;20106;-39
2022/05/12 11:42:06;;;;;;;2.28;0.30;;;;;;;;;;4170079;28;20063;-42
2022/05/12 11:44:24;;;;;;;0.43;0.30;;;;;;;;;;4172558;28;20107;-41
2022/05/12 11:46:25;;;;;;;1.38;0.43;;;;;;;;;;4179002;28;20145;-42
2022/05/12 11:48:31;;;;;;;1.63;0.30;;;;;;;;;;4165919;28;20098;-41
2022/05/12 11:50:48;;;;;;;1.63;0.38;;;;;;;;;;4164750;28;20114;-42
2022/05/12 11:53:08;;;;;;;1.48;0.40;;;;;;;;;;4165416;28;20052;-40
2022/05/12 11:55:30;;;;;;;1.13;0.38;;;;;;;;;;4164463;28;20421;-41
2022/05/12 11:57:35;;;;;;;1.30;0.40;;;;;;;;;;4170061;28;20181;-41
2022/05/12 11:59:36;;;;;;;1.02;0.25;;;;;;;;;;4170704;28;20427;-42
2022/05/12 12:01:37;;;;;;;2.05;0.50;;;;;;;;;;4169537;28;20389;-43
2022/05/12 12:03:49;;;;;;;2.63;0.70;;;;;;;;;;4167360;28;20059;-41
2022/05/12 12:05:50;;;;;;;1.77;0.38;;;;;;;;;;4173143;28;20721;-42
2022/05/12 12:07:53;;;;;;;1.55;0.35;;;;;;;;;;4171725;28;20044;-41
2022/05/12 12:09:55;;;;;;;1.73;0.38;;;;;;;;;;4174141;28;20078;-40
2022/05/12 12:11:56;;;;;;;0.88;0.30;;;;;;;;;;4171386;28;20052;-41
2022/05/12 12:13:59;;;;;;;1.45;0.40;;;;;;;;;;4171455;28;20097;-41
2022/05/12 12:16:05;;;;;;;1.55;0.28;;;;;;;;;;4171010;28;20558;-42
2022/05/12 12:18:18;;;;;;;0.82;0.30;;;;;;;;;;4172297;28;20499;-42
2022/05/12 12:20:28;;;;;;;0.77;0.30;;;;;;;;;;4166656;28;20393;-40
2022/05/12 12:22:49;;;;;;;1.50;0.30;;;;;;;;;;4168537;28;20099;-42
2022/05/12 12:24:53;;;;;;;3.20;0.38;;;;;;;;;;4175022;28;20048;-41
2022/05/12 12:26:55;;;;;;;1.08;0.30;;;;;;;;;;4173091;28;20049;-41
2022/05/12 12:29:08;;;;;;;0.82;0.30;;;;;;;;;;4168577;28;20555;-40
2022/05/12 12:31:21;;;;;;;1.33;0.43;;;;;;;;;;4167260;28;20118;-41
2022/05/12 12:33:25;;;;;;;2.22;0.22;;;;;;;;;;4170462;28;20059;-41
2022/05/12 12:35:28;;;;;;;1.80;0.38;;;;;;;;;;4173596;28;20048;-41
2022/05/12 12:37:42;;;;;;;1.70;0.40;;;;;;;;;;4171510;28;20060;-41
2022/05/12 12:39:43;;;;;;;0.80;0.35;;;;;;;;;;4168469;28;20508;-41